createdAt,value
2018-09-20T00:00:27.764Z,5.57
2018-09-20T00:02:56.182Z,5.93
2018-09-20T00:05:24.685Z,5.67
2018-09-20T00:07:53.105Z,5.93
2018-09-20T00:10:21.558Z,6.63
2018-09-20T00:12:49.864Z,6.13
2018-09-20T00:15:18.258Z,6.60
2018-09-20T00:17:51.787Z,6.90
2018-09-20T00:20:20.421Z,6.40
2018-09-20T00:22:48.789Z,7.00
2018-09-20T00:25:17.100Z,6.90
2018-09-20T00:27:45.453Z,6.90
2018-09-20T00:30:13.869Z,7.03
2018-09-20T00:32:42.267Z,7.00
2018-09-20T00:35:10.753Z,6.67
2018-09-20T00:37:39.079Z,6.80
2018-09-20T00:40:07.563Z,6.60
2018-09-20T00:42:35.856Z,6.90
2018-09-20T00:45:04.284Z,6.83
2018-09-20T00:47:32.615Z,6.07
2018-09-20T00:50:00.993Z,6.93
2018-09-20T00:52:29.371Z,7.00
2018-09-20T00:54:57.763Z,6.90
2018-09-20T00:57:26.167Z,7.63
2018-09-20T00:59:54.591Z,7.33
2018-09-20T01:02:23.078Z,6.80
2018-09-20T01:04:51.456Z,6.23
2018-09-20T01:07:19.865Z,6.63
2018-09-20T01:09:48.240Z,6.37
2018-09-20T01:12:16.597Z,6.37
2018-09-20T01:14:44.999Z,6.73
2018-09-20T01:17:13.361Z,7.60
2018-09-20T01:19:41.744Z,7.37
2018-09-20T01:22:10.246Z,7.27
2018-09-20T01:24:38.546Z,7.20
2018-09-20T01:27:06.865Z,7.17
2018-09-20T01:29:35.288Z,6.87
2018-09-20T01:32:03.737Z,7.17
2018-09-20T01:34:32.125Z,7.13
2018-09-20T01:37:00.606Z,7.47
2018-09-20T01:39:28.981Z,7.00
2018-09-20T01:41:57.361Z,7.60
2018-09-20T01:44:25.730Z,7.20
2018-09-20T01:46:54.122Z,6.73
2018-09-20T01:49:22.635Z,7.33
2018-09-20T01:51:50.993Z,6.50
2018-09-20T01:54:19.356Z,7.00
2018-09-20T01:56:47.779Z,6.77
2018-09-20T01:59:16.102Z,6.97
2018-09-20T02:01:44.484Z,6.90
2018-09-20T02:04:12.916Z,6.80
2018-09-20T02:06:41.254Z,6.63
2018-09-20T02:09:11.287Z,6.67
2018-09-20T02:11:39.903Z,7.17
2018-09-20T02:14:08.464Z,7.73
2018-09-20T02:16:36.800Z,6.57
2018-09-20T02:19:05.312Z,7.57
2018-09-20T02:21:33.656Z,6.77
2018-09-20T02:24:02.073Z,6.93
2018-09-20T02:26:30.433Z,7.60
2018-09-20T02:28:58.866Z,6.80
2018-09-20T02:31:27.310Z,6.53
2018-09-20T02:33:55.668Z,6.87
2018-09-20T02:36:24.393Z,6.57
2018-09-20T02:38:52.751Z,7.37
2018-09-20T02:41:21.131Z,8.20
2018-09-20T02:43:49.514Z,8.57
2018-09-20T02:46:17.906Z,8.03
2018-09-20T02:48:46.294Z,8.83
2018-09-20T02:51:14.623Z,8.30
2018-09-20T02:53:43.931Z,8.30
2018-09-20T02:56:12.388Z,8.30
2018-09-20T02:58:40.697Z,7.60
2018-09-20T03:01:09.183Z,7.80
2018-09-20T03:03:37.558Z,7.27
2018-09-20T03:06:06.105Z,7.43
2018-09-20T03:08:34.388Z,7.40
2018-09-20T03:11:02.811Z,7.97
2018-09-20T03:13:31.179Z,7.70
2018-09-20T03:16:01.588Z,7.33
2018-09-20T03:18:30.954Z,7.13
2018-09-20T03:20:59.373Z,6.90
2018-09-20T03:23:28.705Z,6.33
2018-09-20T03:25:57.099Z,7.43
2018-09-20T03:28:26.496Z,6.93
2018-09-20T03:30:55.063Z,6.50
2018-09-20T03:33:23.324Z,6.53
2018-09-20T03:35:51.682Z,6.37
2018-09-20T03:38:20.055Z,7.10
2018-09-20T03:40:49.564Z,7.60
2018-09-20T03:43:17.903Z,7.80
2018-09-20T03:45:47.321Z,8.43
2018-09-20T03:48:15.655Z,7.77
2018-09-20T03:50:44.068Z,8.63
2018-09-20T03:53:12.364Z,9.13
2018-09-20T03:55:41.728Z,8.47
2018-09-20T03:58:10.157Z,8.53
2018-09-20T04:00:39.519Z,8.43
2018-09-20T04:03:08.936Z,8.60
2018-09-20T04:05:37.296Z,8.17
2018-09-20T04:08:05.712Z,7.80
2018-09-20T04:10:36.101Z,7.93
2018-09-20T04:13:04.503Z,8.27
2018-09-20T04:15:36.908Z,8.13
2018-09-20T04:18:05.248Z,7.60
2018-09-20T04:20:35.616Z,6.87
2018-09-20T04:23:03.936Z,7.27
2018-09-20T04:25:32.875Z,7.33
2018-09-20T04:28:01.703Z,7.47
2018-09-20T04:30:31.244Z,7.27
2018-09-20T04:32:59.622Z,7.20
2018-09-20T04:35:27.976Z,7.33
2018-09-20T04:37:58.313Z,7.13
2018-09-20T04:40:27.616Z,7.23
2018-09-20T04:42:55.987Z,7.67
2018-09-20T04:45:24.375Z,7.03
2018-09-20T04:47:52.748Z,7.53
2018-09-20T04:50:21.112Z,7.40
2018-09-20T04:52:49.497Z,6.63
2018-09-20T04:55:17.864Z,6.50
2018-09-20T04:57:46.304Z,7.27
2018-09-20T05:00:14.944Z,7.40
2018-09-20T05:02:43.348Z,7.50
2018-09-20T05:05:12.707Z,7.20
2018-09-20T05:07:45.955Z,7.50
2018-09-20T05:10:14.404Z,8.17
2018-09-20T05:12:42.830Z,7.97
2018-09-20T05:15:11.320Z,7.53
2018-09-20T05:17:39.638Z,7.83
2018-09-20T05:20:08.092Z,7.60
2018-09-20T05:22:36.419Z,9.27
2018-09-20T05:25:04.879Z,7.20
2018-09-20T05:27:33.347Z,8.17
2018-09-20T05:30:01.889Z,8.30
2018-09-20T05:32:30.252Z,9.00
2018-09-20T05:34:58.844Z,8.43
2018-09-20T05:37:27.260Z,7.73
2018-09-20T05:39:55.769Z,7.27
2018-09-20T05:42:24.495Z,7.20
2018-09-20T05:44:52.921Z,6.80
2018-09-20T05:47:21.400Z,6.80
2018-09-20T05:49:49.764Z,7.10
2018-09-20T05:52:18.161Z,6.67
2018-09-20T05:54:46.831Z,7.10
2018-09-20T05:57:15.477Z,8.00
2018-09-20T05:59:43.854Z,7.57
2018-09-20T06:02:12.420Z,8.43
2018-09-20T06:04:40.922Z,7.77
2018-09-20T06:07:09.260Z,8.43
2018-09-20T06:09:37.685Z,8.87
2018-09-20T06:12:06.275Z,9.50
2018-09-20T06:14:34.709Z,9.33
2018-09-20T06:17:03.404Z,8.93
2018-09-20T06:19:31.773Z,9.37
2018-09-20T06:22:00.195Z,8.80
2018-09-20T06:24:28.613Z,9.33
2018-09-20T06:26:57.277Z,8.90
2018-09-20T06:29:25.624Z,9.00
2018-09-20T06:31:53.992Z,9.43
2018-09-20T06:34:22.401Z,8.97
2018-09-20T06:36:50.759Z,8.63
2018-09-20T06:39:19.167Z,8.97
2018-09-20T06:41:47.636Z,8.97
2018-09-20T06:44:16.035Z,8.37
2018-09-20T06:46:44.338Z,8.60
2018-09-20T06:49:12.904Z,9.20
2018-09-20T06:51:41.255Z,8.70
2018-09-20T06:54:09.611Z,9.30
2018-09-20T06:56:38.054Z,10.10
2018-09-20T06:59:06.377Z,9.97
2018-09-20T07:01:34.756Z,10.23
2018-09-20T07:04:03.293Z,10.10
2018-09-20T07:06:31.575Z,9.70
2018-09-20T07:09:00.173Z,9.60
2018-09-20T07:11:28.571Z,10.27
2018-09-20T07:13:57.151Z,10.20
2018-09-20T07:16:25.531Z,8.90
2018-09-20T07:18:54.027Z,9.70
2018-09-20T07:21:22.409Z,8.70
2018-09-20T07:23:50.772Z,9.90
2018-09-20T07:26:19.167Z,9.60
2018-09-20T07:28:47.714Z,8.67
2018-09-20T07:31:16.094Z,8.20
2018-09-20T07:33:44.471Z,8.53
2018-09-20T07:36:12.901Z,7.40
2018-09-20T07:38:41.363Z,8.53
2018-09-20T07:41:09.727Z,8.23
2018-09-20T07:43:38.142Z,8.60
2018-09-20T07:46:06.608Z,9.13
2018-09-20T07:48:34.990Z,8.10
2018-09-20T07:51:03.317Z,7.20
2018-09-20T07:53:31.703Z,7.43
2018-09-20T07:56:00.114Z,7.53
2018-09-20T07:58:28.509Z,6.87
2018-09-20T08:00:56.876Z,7.13
2018-09-20T08:03:25.274Z,7.10
2018-09-20T08:05:53.620Z,7.17
2018-09-20T08:08:21.975Z,6.90
2018-09-20T08:10:50.371Z,7.83
2018-09-20T08:13:18.749Z,7.73
2018-09-20T08:15:47.131Z,7.20
2018-09-20T08:18:15.494Z,7.50
2018-09-20T08:20:43.984Z,7.50
2018-09-20T08:23:12.535Z,7.80
2018-09-20T08:25:40.907Z,7.90
2018-09-20T08:28:09.257Z,8.03
2018-09-20T08:30:37.620Z,7.17
2018-09-20T08:33:06.064Z,7.37
2018-09-20T08:35:34.352Z,8.20
2018-09-20T08:38:02.766Z,8.30
2018-09-20T08:40:31.449Z,8.50
2018-09-20T08:42:59.815Z,7.50
2018-09-20T08:45:28.205Z,7.20
2018-09-20T08:47:56.573Z,7.43
2018-09-20T08:50:25.058Z,7.13
2018-09-20T08:52:53.441Z,6.93
2018-09-20T08:55:21.829Z,7.10
2018-09-20T08:57:51.209Z,6.77
2018-09-20T09:00:19.775Z,6.80
2018-09-20T09:02:48.092Z,5.60
2018-09-20T09:05:16.546Z,6.17
2018-09-20T09:07:44.927Z,6.10
2018-09-20T09:10:13.324Z,6.33
2018-09-20T09:12:41.726Z,6.83
2018-09-20T09:15:10.130Z,6.67
2018-09-20T09:17:38.422Z,7.13
2018-09-20T09:20:06.772Z,6.70
2018-09-20T09:22:35.098Z,6.83
2018-09-20T09:25:03.535Z,6.37
2018-09-20T09:27:31.831Z,6.27
2018-09-20T09:30:00.251Z,6.73
2018-09-20T09:32:28.619Z,6.47
2018-09-20T09:34:57.050Z,5.63
2018-09-20T09:37:25.363Z,6.20
2018-09-20T09:39:53.656Z,6.67
2018-09-20T09:42:30.019Z,5.70
2018-09-20T09:44:58.376Z,5.60
2018-09-20T09:47:26.870Z,5.27
2018-09-20T09:49:55.266Z,4.53
2018-09-20T09:52:23.784Z,5.10
2018-09-20T09:54:52.168Z,5.20
2018-09-20T09:57:20.529Z,4.90
2018-09-20T09:59:48.916Z,5.00
2018-09-20T10:02:17.187Z,5.10
2018-09-20T10:04:45.568Z,4.83
2018-09-20T10:07:13.960Z,5.50
2018-09-20T10:09:42.269Z,5.33
2018-09-20T10:12:10.668Z,5.20
2018-09-20T10:14:39.033Z,4.67
2018-09-20T10:17:07.524Z,5.33
2018-09-20T10:19:35.904Z,4.87
2018-09-20T10:22:04.351Z,4.80
2018-09-20T10:24:32.634Z,4.70
2018-09-20T10:27:00.995Z,4.90
2018-09-20T10:29:29.351Z,4.20
2018-09-20T10:31:57.706Z,4.80
2018-09-20T10:34:26.060Z,4.60
2018-09-20T10:36:54.363Z,4.30
2018-09-20T10:39:22.812Z,4.27
2018-09-20T10:41:51.181Z,5.07
2018-09-20T10:44:19.474Z,5.00
2018-09-20T10:46:47.903Z,4.53
2018-09-20T10:49:16.224Z,5.03
2018-09-20T10:51:44.537Z,4.50
2018-09-20T10:54:12.907Z,4.33
2018-09-20T10:56:41.287Z,4.47
2018-09-20T10:59:09.672Z,4.50
2018-09-20T11:01:38.049Z,4.23
2018-09-20T11:04:06.408Z,4.63
2018-09-20T11:06:34.820Z,4.40
2018-09-20T11:09:03.333Z,4.27
2018-09-20T11:11:31.674Z,4.47
2018-09-20T11:14:00.032Z,4.27
2018-09-20T11:16:28.422Z,4.20
2018-09-20T11:18:56.829Z,3.90
2018-09-20T11:21:25.273Z,4.37
2018-09-20T11:23:53.633Z,4.53
2018-09-20T11:26:21.963Z,4.40
2018-09-20T11:28:50.316Z,4.17
2018-09-20T11:31:18.699Z,4.40
2018-09-20T11:33:47.064Z,4.73
2018-09-20T11:36:15.502Z,4.20
2018-09-20T11:38:43.827Z,4.60
2018-09-20T11:41:12.280Z,4.03
2018-09-20T11:43:40.631Z,4.27
2018-09-20T11:46:09.040Z,4.63
2018-09-20T11:48:37.368Z,4.20
2018-09-20T11:51:05.721Z,4.80
2018-09-20T11:53:34.093Z,4.23
2018-09-20T11:56:02.510Z,4.40
2018-09-20T11:58:30.968Z,4.10
2018-09-20T12:00:59.344Z,4.83
2018-09-20T12:03:27.728Z,4.20
2018-09-20T12:05:56.085Z,4.37
2018-09-20T12:08:24.539Z,4.37
2018-09-20T12:10:52.833Z,5.13
2018-09-20T12:13:21.150Z,4.30
2018-09-20T12:15:50.000Z,4.47
2018-09-20T12:18:18.342Z,4.17
2018-09-20T12:20:46.708Z,3.77
2018-09-20T12:23:15.101Z,4.07
2018-09-20T12:25:43.521Z,3.87
2018-09-20T12:28:11.915Z,3.60
2018-09-20T12:30:40.359Z,3.77
2018-09-20T12:33:08.705Z,3.73
2018-09-20T12:35:37.143Z,3.57
2018-09-20T12:38:05.446Z,3.63
2018-09-20T12:40:33.903Z,3.80
2018-09-20T12:43:02.398Z,3.33
2018-09-20T12:45:30.597Z,3.70
2018-09-20T12:47:58.996Z,3.20
2018-09-20T12:50:27.302Z,3.57
2018-09-20T12:52:55.632Z,3.53
2018-09-20T12:55:24.104Z,3.47
2018-09-20T12:57:52.509Z,3.57
2018-09-20T13:00:21.515Z,3.10
2018-09-20T13:02:49.921Z,3.17
2018-09-20T13:05:18.215Z,3.17
2018-09-20T13:07:46.651Z,3.23
2018-09-20T13:10:14.969Z,3.50
2018-09-20T13:12:43.385Z,2.97
2018-09-20T13:15:11.868Z,3.00
2018-09-20T13:17:40.272Z,3.20
2018-09-20T13:20:08.718Z,3.30
2018-09-20T13:22:37.040Z,3.00
2018-09-20T13:25:05.431Z,3.40
2018-09-20T13:27:33.757Z,2.80
2018-09-20T13:30:02.136Z,2.87
2018-09-20T13:32:31.579Z,3.47
2018-09-20T13:34:59.977Z,3.30
2018-09-20T13:37:28.613Z,3.07
2018-09-20T13:39:57.050Z,2.90
2018-09-20T13:42:25.524Z,2.90
2018-09-20T13:44:53.831Z,3.20
2018-09-20T13:47:22.399Z,3.20
2018-09-20T13:49:53.776Z,3.20
2018-09-20T13:52:22.302Z,3.63
2018-09-20T13:55:27.769Z,3.27
2018-09-20T13:57:56.369Z,2.90
2018-09-20T14:00:24.813Z,3.03
2018-09-20T14:02:53.202Z,3.40
2018-09-20T14:05:21.492Z,2.80
2018-09-20T14:07:50.045Z,3.03
2018-09-20T14:10:18.506Z,3.00
2018-09-20T14:12:47.101Z,3.10
2018-09-20T14:15:15.567Z,3.20
2018-09-20T14:17:44.901Z,4.17
2018-09-20T14:20:13.376Z,3.67
2018-09-20T14:22:41.785Z,3.40
2018-09-20T14:25:10.266Z,3.33
2018-09-20T14:27:38.528Z,3.17
2018-09-20T14:30:07.013Z,3.07
2018-09-20T14:32:35.401Z,3.43
2018-09-20T14:35:04.429Z,3.30
2018-09-20T14:37:33.107Z,4.23
2018-09-20T14:40:01.568Z,5.43
2018-09-20T14:42:31.071Z,6.50
2018-09-20T14:44:59.617Z,4.47
2018-09-20T14:47:28.124Z,4.13
2018-09-20T14:49:56.523Z,3.90
2018-09-20T14:52:26.860Z,4.23
2018-09-20T14:54:57.365Z,3.80
2018-09-20T14:57:29.023Z,3.60
2018-09-20T14:59:57.689Z,5.47
2018-09-20T15:02:27.081Z,3.53
2018-09-20T15:04:55.504Z,3.80
2018-09-20T15:07:24.129Z,4.57
2018-09-20T15:09:54.653Z,4.43
2018-09-20T15:12:23.107Z,3.90
2018-09-20T15:14:51.490Z,3.87
2018-09-20T15:17:19.932Z,4.00
2018-09-20T15:19:48.428Z,3.93
2018-09-20T15:22:16.848Z,3.60
2018-09-20T15:24:45.304Z,3.73
2018-09-20T15:27:14.714Z,3.10
2018-09-20T15:29:43.096Z,3.37
2018-09-20T15:32:11.478Z,3.60
2018-09-20T15:34:39.889Z,4.10
2018-09-20T15:37:08.277Z,3.90
2018-09-20T15:39:36.701Z,4.50
2018-09-20T15:42:05.688Z,3.70
2018-09-20T15:44:34.077Z,3.80
2018-09-20T15:47:02.462Z,3.73
2018-09-20T15:49:30.849Z,3.30
2018-09-20T15:51:59.507Z,3.40
2018-09-20T15:54:27.936Z,3.67
2018-09-20T15:56:56.320Z,3.67
2018-09-20T15:59:24.708Z,3.73
2018-09-20T16:01:53.033Z,3.60
2018-09-20T16:04:21.438Z,3.63
2018-09-20T16:06:49.831Z,3.60
2018-09-20T16:09:18.234Z,3.77
2018-09-20T16:11:46.549Z,3.93
2018-09-20T16:14:14.916Z,3.90
2018-09-20T16:16:43.307Z,4.10
2018-09-20T16:19:11.779Z,4.13
2018-09-20T16:21:40.173Z,4.10
2018-09-20T16:24:08.607Z,3.90
2018-09-20T16:26:36.948Z,4.30
2018-09-20T16:29:30.017Z,3.47
2018-09-20T16:34:13.179Z,4.13
2018-09-20T16:37:06.075Z,4.13
2018-09-20T16:39:36.918Z,3.80
2018-09-20T16:42:10.416Z,4.10
2018-09-20T16:44:38.860Z,4.60
2018-09-20T16:47:07.301Z,4.50
2018-09-20T16:49:36.844Z,3.90
2018-09-20T16:52:05.496Z,4.17
2018-09-20T16:54:33.834Z,4.40
2018-09-20T16:57:02.248Z,4.00
2018-09-20T16:59:30.606Z,3.97
2018-09-20T17:01:58.983Z,4.00
2018-09-20T17:04:27.397Z,4.20
2018-09-20T17:06:55.748Z,4.40
2018-09-20T17:09:24.184Z,4.43
2018-09-20T17:11:52.612Z,4.87
2018-09-20T17:14:21.006Z,4.27
2018-09-20T17:16:49.393Z,4.63
2018-09-20T17:19:17.739Z,4.30
2018-09-20T17:21:46.226Z,4.80
2018-09-20T17:24:14.722Z,5.07
2018-09-20T17:26:43.081Z,5.27
2018-09-20T17:29:11.511Z,5.37
2018-09-20T17:31:39.810Z,5.17
2018-09-20T17:34:08.153Z,5.57
2018-09-20T17:36:36.921Z,5.70
2018-09-20T17:39:09.540Z,5.47
2018-09-20T17:41:49.902Z,5.47
2018-09-20T17:44:18.487Z,7.53
2018-09-20T17:46:46.789Z,8.73
2018-09-20T17:49:15.263Z,6.93
2018-09-20T17:51:43.974Z,5.87
2018-09-20T17:54:13.046Z,5.10
2018-09-20T17:56:47.862Z,4.77
2018-09-20T17:59:16.199Z,5.37
2018-09-20T18:01:44.552Z,5.80
2018-09-20T18:04:25.010Z,5.40
2018-09-20T18:06:53.418Z,5.77
2018-09-20T18:09:21.764Z,4.97
2018-09-20T18:11:50.257Z,4.83
2018-09-20T18:14:18.657Z,4.73
2018-09-20T18:16:47.011Z,6.57
2018-09-20T18:19:15.384Z,5.40
2018-09-20T18:21:43.764Z,5.77
2018-09-20T18:24:12.158Z,5.90
2018-09-20T18:26:40.703Z,5.13
2018-09-20T18:29:09.029Z,5.40
2018-09-20T18:31:42.722Z,5.70
2018-09-20T18:34:13.042Z,5.33
2018-09-20T18:36:41.470Z,6.70
2018-09-20T18:39:12.452Z,6.37
2018-09-20T18:41:41.541Z,5.90
2018-09-20T18:44:10.231Z,6.07
2018-09-20T18:46:38.693Z,6.07
2018-09-20T18:49:07.212Z,6.13
2018-09-20T18:51:35.548Z,5.90
2018-09-20T18:54:03.893Z,6.10
2018-09-20T18:56:32.376Z,6.40
2018-09-20T18:59:01.049Z,5.63
2018-09-20T19:01:29.537Z,5.90
2018-09-20T19:03:57.866Z,6.10
2018-09-20T19:06:26.441Z,6.10
2018-09-20T19:08:54.977Z,6.17
2018-09-20T19:11:23.255Z,6.00
2018-09-20T19:13:51.645Z,5.60
2018-09-20T19:16:19.968Z,6.50
2018-09-20T19:18:48.351Z,6.27
2018-09-20T19:21:16.683Z,6.30
2018-09-20T19:23:44.888Z,6.80
2018-09-20T19:26:13.196Z,11.00
2018-09-20T19:28:41.485Z,9.67
2018-09-20T19:31:09.793Z,6.70
2018-09-20T19:33:38.070Z,6.50
2018-09-20T19:36:06.448Z,5.93
2018-09-20T19:38:34.736Z,5.90
2018-09-20T19:41:03.189Z,6.10
2018-09-20T19:43:31.495Z,6.13
2018-09-20T19:45:59.845Z,6.43
2018-09-20T19:48:33.673Z,6.23
2018-09-20T19:51:01.972Z,5.77
2018-09-20T19:53:30.245Z,6.27
2018-09-20T19:56:04.049Z,5.70
2018-09-20T19:58:40.493Z,6.40
2018-09-20T20:01:08.900Z,6.20
2018-09-20T20:03:37.331Z,6.53
2018-09-20T20:06:05.642Z,6.50
2018-09-20T20:08:34.057Z,7.03
2018-09-20T20:11:02.925Z,6.30
2018-09-20T20:13:31.319Z,6.27
2018-09-20T20:15:59.640Z,6.50
2018-09-20T20:18:27.915Z,6.70
2018-09-20T20:20:56.208Z,6.23
2018-09-20T20:23:24.605Z,6.57
2018-09-20T20:25:52.881Z,6.10
2018-09-20T20:28:21.226Z,6.60
2018-09-20T20:30:49.580Z,6.63
2018-09-20T20:33:17.944Z,6.40
2018-09-20T20:35:46.221Z,6.60
2018-09-20T20:38:14.668Z,6.40
2018-09-20T20:40:56.756Z,6.53
2018-09-20T20:43:25.229Z,6.27
2018-09-20T20:45:53.522Z,6.30
2018-09-20T20:48:21.926Z,6.27
2018-09-20T20:50:50.370Z,6.27
2018-09-20T20:53:18.767Z,5.97
2018-09-20T20:55:47.093Z,6.23
2018-09-20T20:58:15.521Z,6.47
2018-09-20T21:00:44.749Z,6.23
2018-09-20T21:03:14.064Z,6.20
2018-09-20T21:05:42.452Z,6.37
2018-09-20T21:08:10.882Z,6.63
2018-09-20T21:10:39.204Z,6.97
2018-09-20T21:13:07.586Z,6.37
2018-09-20T21:15:36.933Z,6.93
2018-09-20T21:18:05.241Z,6.33
2018-09-20T21:20:33.590Z,7.00
2018-09-20T21:23:01.988Z,7.47
2018-09-20T21:25:30.295Z,7.27
2018-09-20T21:27:58.617Z,7.30
2018-09-20T21:30:26.955Z,6.87
2018-09-20T21:32:55.227Z,6.70
2018-09-20T21:35:23.518Z,7.03
2018-09-20T21:37:52.799Z,6.90
2018-09-20T21:40:21.178Z,7.63
2018-09-20T21:42:49.473Z,7.93
2018-09-20T21:45:17.760Z,7.60
2018-09-20T21:47:46.055Z,7.07
2018-09-20T21:50:14.376Z,6.93
2018-09-20T21:52:42.700Z,7.30
2018-09-20T21:55:11.076Z,7.60
2018-09-20T21:57:39.357Z,7.60
2018-09-20T22:00:07.764Z,7.53
2018-09-20T22:02:41.277Z,7.43
2018-09-20T22:05:09.586Z,7.20
2018-09-20T22:07:37.884Z,7.97
2018-09-20T22:10:06.200Z,7.07
2018-09-20T22:12:34.485Z,7.70
2018-09-20T22:15:02.816Z,7.87
2018-09-20T22:17:31.121Z,7.00
2018-09-20T22:19:59.447Z,7.67
2018-09-20T22:22:27.733Z,7.80
2018-09-20T22:24:58.266Z,7.13
2018-09-20T22:27:26.637Z,6.53
2018-09-20T22:29:55.657Z,6.40
2018-09-20T22:32:24.055Z,6.23
2018-09-20T22:34:52.474Z,7.03
2018-09-20T22:37:20.765Z,8.13
2018-09-20T22:39:49.213Z,7.77
2018-09-20T22:42:17.534Z,7.17
2018-09-20T22:44:45.890Z,7.57
2018-09-20T22:47:14.185Z,6.73
2018-09-20T22:49:42.558Z,6.60
2018-09-20T22:52:10.966Z,7.00
2018-09-20T22:54:39.293Z,6.57
2018-09-20T22:57:08.601Z,6.43
2018-09-20T22:59:37.001Z,7.00
2018-09-20T23:02:05.399Z,6.80
2018-09-20T23:04:34.472Z,7.50
2018-09-20T23:07:03.787Z,6.70
2018-09-20T23:09:32.226Z,7.30
2018-09-20T23:12:00.559Z,6.50
2018-09-20T23:14:28.929Z,6.77
2018-09-20T23:16:57.297Z,7.13
2018-09-20T23:19:25.679Z,6.30
2018-09-20T23:21:54.069Z,6.40
2018-09-20T23:24:22.431Z,6.83
2018-09-20T23:26:50.836Z,6.70
2018-09-20T23:29:19.173Z,7.40
2018-09-20T23:31:47.611Z,6.73
2018-09-20T23:34:15.951Z,6.97
2018-09-20T23:36:44.660Z,7.33
2018-09-20T23:39:13.396Z,6.97
2018-09-20T23:41:41.676Z,6.70
2018-09-20T23:44:09.996Z,6.60
2018-09-20T23:46:38.837Z,6.70
2018-09-20T23:49:07.157Z,6.90
2018-09-20T23:51:35.508Z,6.33
2018-09-20T23:54:03.896Z,6.33
2018-09-20T23:56:32.256Z,7.00
2018-09-20T23:59:00.541Z,6.73
